Kenton, DE (19955)

19:13 EST le 10 décembre 2016 (GMT -0500)
Northridge | | Change Station

Alt. 26 ft 39.25 °N, 75.60 °W | Updated 2 minutes ago

Ciel dégagé
Ciel dégagé
30.2 ° F
Paraît 30 ° F
N
0.0
Vent Variable Vent de ONO
Gusts 0.0 mph

Aujourd'hui
Haut(e) -- | Bas -- ° F
--% Risque de précip.
Hier
Haut(e) -- | Bas -- ° F
Precip. -- pouce
Pression 30.48 pouce
Visibilité 10.0 Miles terrestres
Nuages Ciel dégagé
Refroidissement éolien 30 ° F
Point de rosée 20 ° F
Humidité 64%
Précipitations 0.00 pouce
Profondeur de la couche neigeuse Non disponible.
7:11 AM 4:39 PM
Lune gibbeuse croissante, 87% visible
METAR KDOV 102358Z AUTO 27006KT 10SM CLR M01/M08 A3047 RMK AO2 SLP322 T10101081 10034 21011 52022 $
Pression 30.48 pouce
Visibilité 10.0 Miles terrestres
Nuages Ciel dégagé
Refroidissement éolien 30 ° F
Point de rosée 20 ° F
Humidité 64%
Précipitations 0.00 pouce
Profondeur de la couche neigeuse Non disponible.
7:11 AM 4:39 PM
Lune gibbeuse croissante, 87% visible
METAR KDOV 102358Z AUTO 27006KT 10SM CLR M01/M08 A3047 RMK AO2 SLP322 T10101081 10034 21011 52022 $

10-Day Weather Forecast

Almanac

Astronomie

Dec. 10, 2016 Lever Coucher
Temps réel
Crépuscule civil
Crépuscule nautique
Crépuscule astronomique
Lune
Durée de lumière visible
Longueur du jour
Tomorrow will be .
, % of the Moon is Illuminated

Extrêmes aujourd'hui

State Highs State Lows

Community

WunderPhotos

Upload Photos

1,956,680 Photos téléchargées !

WunderBlog® & News

Nearby

Qualité de l'air

  Qualité de l'air Indice de la qualité de l'air Polluant
Not available.

Épaisseur de neige

Station Depth Altitude

Activité sismique

Ville Distance Mag. Time & Date
Minimum magnitude displayed is 2.5.

Températures des eaux côtières

Lieu Température

Stations

Stations météo à proximité

Emplacement de la station Température Refroidissement éolien Point de rosée Humidité Vent Precip. Alt. Mise à jour Type
                   

Watches & Warnings

There are currently no watches in effect.